Time;durP1;ratioP1;P1;durP2;ratioP2;P2;SDS_P1;SDS_P2;PMS_P1;PMS_P2;Temp;Humidity;BMP_temperature;BMP_pressure;BME280_temperature;BME280_humidity;BME280_pressure;Samples;Min_cycle;Max_cycle;Signal;HPM_P1;HPM_P2
2022/08/08 00:01:46;;;;;;;;;;;22.30;62.90;;;;;;6193674;23;1233;-66
2022/08/08 00:04:14;;;;;;;;;;;22.30;62.90;;;;;;6218361;23;1341;-66
2022/08/08 00:06:45;;;;;;;;;;;22.30;62.90;;;;;;6218041;23;1188;-65
2022/08/08 00:09:20;;;;;;;;;;;22.30;63.00;;;;;;6193271;23;1234;-66
2022/08/08 00:11:46;;;;;;;;;;;22.30;63.00;;;;;;6218424;23;846;-66
2022/08/08 00:14:21;;;;;;;;;;;22.30;63.00;;;;;;6244746;23;1892;-66
2022/08/08 00:17:01;;;;;;;;;;;22.30;63.00;;;;;;6217518;23;1257;-66
2022/08/08 00:19:27;;;;;;;;;;;22.30;63.00;;;;;;6245106;23;761;-67
2022/08/08 00:21:56;;;;;;;;;;;22.30;63.80;;;;;;6245736;23;852;-66
2022/08/08 00:24:25;;;;;;;;;;;22.30;63.10;;;;;;6218035;23;1264;-66
2022/08/08 00:26:54;;;;;;;;;;;22.30;63.10;;;;;;6217302;23;1273;-64
2022/08/08 00:29:24;;;;;;;;;;;22.30;63.10;;;;;;6218379;23;911;-67
2022/08/08 00:31:51;;;;;;;;;;;22.30;63.10;;;;;;6218252;23;1224;-65
2022/08/08 00:37:40;;;;;;;;;;;22.30;63.10;;;;;;6244234;23;703;-66
2022/08/08 00:40:19;;;;;;;;;;;22.30;63.10;;;;;;6167749;23;1609;-67
2022/08/08 00:42:45;;;;;;;;;;;22.40;63.30;;;;;;6245219;23;804;-66
2022/08/08 00:45:22;;;;;;;;;;;22.30;63.20;;;;;;6245141;23;1198;-67
2022/08/08 00:47:50;;;;;;;;;;;22.30;63.20;;;;;;6244775;23;994;-67
2022/08/08 00:50:26;;;;;;;;;;;22.30;63.20;;;;;;6245337;23;989;-67
2022/08/08 00:52:57;;;;;;;;;;;22.30;63.20;;;;;;6218269;23;1936;-66
2022/08/08 00:55:32;;;;;;;;;;;22.30;63.20;;;;;;6244786;23;1202;-66
2022/08/08 00:58:15;;;;;;;;;;;22.30;63.30;;;;;;6245105;23;819;-66
2022/08/08 01:00:46;;;;;;;;;;;22.30;63.30;;;;;;6245148;23;800;-67
2022/08/08 01:03:30;;;;;;;;;;;22.30;63.30;;;;;;6218053;23;752;-65
2022/08/08 01:06:02;;;;;;;;;;;22.30;64.10;;;;;;6217175;23;1349;-65
2022/08/08 01:08:27;;;;;;;;;;;22.30;63.40;;;;;;6244555;23;844;-66
2022/08/08 01:10:56;;;;;;;;;;;22.30;63.40;;;;;;6218132;23;1203;-65
2022/08/08 01:13:30;;;;;;;;;;;22.30;63.40;;;;;;6244797;23;1897;-65
2022/08/08 01:16:14;;;;;;;;;;;22.30;63.40;;;;;;6217433;23;1215;-65
2022/08/08 01:18:42;;;;;;;;;;;22.30;63.40;;;;;;6245076;23;847;-65
2022/08/08 01:21:08;;;;;;;;;;;22.30;63.40;;;;;;6244996;23;990;-65
2022/08/08 01:23:52;;;;;;;;;;;22.30;63.40;;;;;;6245021;23;986;-66
2022/08/08 01:26:20;;;;;;;;;;;22.30;63.40;;;;;;6244166;23;1199;-64
2022/08/08 01:29:04;;;;;;;;;;;22.30;63.50;;;;;;6246434;23;863;-65
2022/08/08 01:31:45;;;;;;;;;;;22.30;63.50;;;;;;6247021;23;843;-64
2022/08/08 01:34:10;;;;;;;;;;;22.30;63.50;;;;;;6246779;23;1928;-65
2022/08/08 01:36:55;;;;;;;;;;;22.30;63.50;;;;;;6245226;23;1269;-66
2022/08/08 01:39:32;;;;;;;;;;;22.30;63.50;;;;;;6246841;23;851;-66
2022/08/08 01:42:00;;;;;;;;;;;22.30;63.50;;;;;;6219967;23;1304;-66
2022/08/08 01:44:44;;;;;;;;;;;22.30;63.50;;;;;;6246491;23;844;-65
2022/08/08 01:47:17;;;;;;;;;;;22.30;63.50;;;;;;6244796;23;1214;-65
2022/08/08 01:49:45;;;;;;;;;;;22.30;63.60;;;;;;6219768;23;891;-64
2022/08/08 01:52:13;;;;;;;;;;;22.30;63.60;;;;;;6219538;23;1061;-65
2022/08/08 01:54:51;;;;;;;;;;;22.30;63.60;;;;;;6219384;23;1888;-65
2022/08/08 01:57:20;;;;;;;;;;;22.30;63.60;;;;;;6245808;23;796;-65
2022/08/08 02:00:03;;;;;;;;;;;22.30;63.60;;;;;;6219567;23;855;-65
2022/08/08 02:02:47;;;;;;;;;;;22.30;63.60;;;;;;6246460;23;967;-65
2022/08/08 02:05:15;;;;;;;;;;;22.30;63.60;;;;;;6245238;23;1292;-66
2022/08/08 02:07:47;;;;;;;;;;;22.30;63.70;;;;;;6244117;23;722;-68
2022/08/08 02:10:21;;;;;;;;;;;22.30;63.70;;;;;;6218247;23;1323;-65
2022/08/08 02:12:56;;;;;;;;;;;22.30;63.70;;;;;;6218007;23;1924;-66
2022/08/08 02:15:37;;;;;;;;;;;22.30;63.70;;;;;;6218006;23;1300;-65
2022/08/08 02:18:03;;;;;;;;;;;22.30;63.70;;;;;;6218341;23;987;-64
2022/08/08 02:20:30;;;;;;;;;;;22.30;63.70;;;;;;6218275;23;1022;-64
2022/08/08 02:23:00;;;;;;;;;;;22.30;63.80;;;;;;6219201;23;1207;-67
2022/08/08 02:25:29;;;;;;;;;;;22.30;63.80;;;;;;6219139;23;1208;-66
2022/08/08 02:27:55;;;;;;;;;;;22.30;63.80;;;;;;6219563;23;961;-65
2022/08/08 02:30:21;;;;;;;;;;;22.30;63.80;;;;;;6245291;23;808;-65
2022/08/08 02:33:05;;;;;;;;;;;22.30;63.90;;;;;;6219194;23;1940;-64
2022/08/08 02:35:34;;;;;;;;;;;22.30;63.80;;;;;;6218978;23;1220;-65
2022/08/08 02:38:18;;;;;;;;;;;22.30;63.80;;;;;;6219189;23;966;-65
2022/08/08 02:40:43;;;;;;;;;;;22.30;63.80;;;;;;6246273;23;855;-64
2022/08/08 02:43:12;;;;;;;;;;;22.30;63.90;;;;;;6219053;23;1412;-66
2022/08/08 02:45:41;;;;;;;;;;;22.30;63.90;;;;;;6218194;23;1278;-64
2022/08/08 02:48:23;;;;;;;;;;;22.30;63.90;;;;;;6246246;23;1007;-64
2022/08/08 02:50:48;;;;;;;;;;;22.30;63.90;;;;;;6219142;23;1001;-64
2022/08/08 02:53:52;;;;;;;;;;;22.30;63.90;;;;;;6246040;23;1979;-64
2022/08/08 02:56:33;;;;;;;;;;;22.30;63.90;;;;;;6093265;23;1289;-65
2022/08/08 02:59:01;;;;;;;;;;;22.30;63.90;;;;;;6094064;23;844;-64
2022/08/08 03:01:45;;;;;;;;;;;22.30;64.00;;;;;;6182377;23;1055;-64
2022/08/08 03:04:22;;;;;;;;;;;22.30;64.00;;;;;;6245556;23;815;-64
2022/08/08 03:06:50;;;;;;;;;;;22.30;64.00;;;;;;6245186;23;1243;-65
2022/08/08 03:09:31;;;;;;;;;;;22.30;64.00;;;;;;6245611;23;1009;-64
2022/08/08 03:12:07;;;;;;;;;;;22.30;64.00;;;;;;6245510;23;1161;-64
2022/08/08 03:14:35;;;;;;;;;;;22.30;64.00;;;;;;6218742;23;1921;-65
2022/08/08 03:17:30;;;;;;;;;;;22.30;64.10;;;;;;6244781;23;1256;-64
2022/08/08 03:20:05;;;;;;;;;;;22.30;64.10;;;;;;6213281;23;1275;-64
2022/08/08 03:22:31;;;;;;;;;;;22.30;64.10;;;;;;6245904;23;828;-65
2022/08/08 03:24:57;;;;;;;;;;;22.30;64.10;;;;;;6245113;23;1214;-65
2022/08/08 03:27:46;;;;;;;;;;;22.30;64.10;;;;;;6243088;22;1786;-69
2022/08/08 03:30:12;;;;;;;;;;;22.30;64.10;;;;;;6202207;23;1124;-69
2022/08/08 03:35:21;;;;;;;;;;;22.30;64.10;;;;;;6245930;23;668;-70
2022/08/08 03:37:47;;;;;;;;;;;22.30;64.10;;;;;;6213718;23;1212;-69
2022/08/08 03:40:12;;;;;;;;;;;22.30;64.20;;;;;;6214165;23;900;-69
2022/08/08 03:42:38;;;;;;;;;;;22.30;64.20;;;;;;6188965;23;856;-69
2022/08/08 03:45:17;;;;;;;;;;;22.30;64.20;;;;;;6214020;23;1361;-69
2022/08/08 03:47:43;;;;;;;;;;;22.30;64.20;;;;;;6215033;23;1240;-70
2022/08/08 03:50:15;;;;;;;;;;;22.30;64.20;;;;;;6214017;23;858;-70
2022/08/08 03:52:41;;;;;;;;;;;22.30;65.00;;;;;;6215524;23;828;-70
2022/08/08 03:55:10;;;;;;;;;;;22.30;64.30;;;;;;6213974;23;1930;-70
2022/08/08 03:57:36;;;;;;;;;;;22.30;64.20;;;;;;6214997;23;1341;-70
2022/08/08 04:00:08;;;;;;;;;;;22.30;64.30;;;;;;6215631;23;820;-70
2022/08/08 04:02:33;;;;;;;;;;;22.30;64.30;;;;;;6188641;23;1143;-70
2022/08/08 04:05:02;;;;;;;;;;;22.30;64.30;;;;;;6215489;23;899;-70
2022/08/08 04:07:33;;;;;;;;;;;22.30;64.30;;;;;;6213444;23;1264;-70
2022/08/08 04:09:59;;;;;;;;;;;22.30;64.30;;;;;;6213978;23;824;-70
2022/08/08 04:12:24;;;;;;;;;;;22.30;64.30;;;;;;6213964;23;815;-70
2022/08/08 04:14:50;;;;;;;;;;;22.30;64.30;;;;;;6215230;23;1936;-70
2022/08/08 04:17:15;;;;;;;;;;;22.30;64.30;;;;;;6214784;23;1186;-70
2022/08/08 04:19:41;;;;;;;;;;;22.30;64.40;;;;;;6214191;23;1009;-70
2022/08/08 04:22:06;;;;;;;;;;;22.30;64.40;;;;;;6209146;23;729;-70
2022/08/08 04:24:31;;;;;;;;;;;22.30;64.40;;;;;;6188131;23;1299;-69
2022/08/08 04:27:00;;;;;;;;;;;22.30;64.40;;;;;;6214494;23;1205;-70
2022/08/08 04:29:26;;;;;;;;;;;22.30;64.40;;;;;;6214869;23;895;-70
2022/08/08 04:31:51;;;;;;;;;;;22.30;64.40;;;;;;6188595;23;1352;-71
2022/08/08 04:34:16;;;;;;;;;;;22.30;64.50;;;;;;6213354;23;1940;-71
2022/08/08 04:36:42;;;;;;;;;;;22.30;64.50;;;;;;6215063;23;1182;-69
2022/08/08 04:39:07;;;;;;;;;;;22.30;64.50;;;;;;6215261;23;1062;-70
2022/08/08 04:41:33;;;;;;;;;;;22.30;65.20;;;;;;6215171;23;1049;-70
2022/08/08 04:43:58;;;;;;;;;;;22.30;64.50;;;;;;6215091;23;816;-70
2022/08/08 04:46:24;;;;;;;;;;;22.30;64.50;;;;;;6212995;23;1274;-72
2022/08/08 04:48:50;;;;;;;;;;;22.30;64.60;;;;;;6215232;23;899;-71
2022/08/08 04:51:15;;;;;;;;;;;22.30;64.50;;;;;;6215062;23;831;-71
2022/08/08 04:53:41;;;;;;;;;;;22.30;64.50;;;;;;6213485;23;1889;-71
2022/08/08 04:56:06;;;;;;;;;;;22.30;64.60;;;;;;6214778;23;1280;-71
2022/08/08 04:58:32;;;;;;;;;;;22.30;64.60;;;;;;6215156;23;807;-71
2022/08/08 05:00:57;;;;;;;;;;;22.30;64.60;;;;;;6215094;23;823;-71
2022/08/08 05:03:22;;;;;;;;;;;22.30;64.60;;;;;;6217081;23;780;-71
2022/08/08 05:05:48;;;;;;;;;;;22.30;64.60;;;;;;6216687;23;928;-72
2022/08/08 05:08:13;;;;;;;;;;;22.30;64.60;;;;;;6216862;23;1278;-73
2022/08/08 05:10:39;;;;;;;;;;;22.30;64.70;;;;;;6216956;23;1006;-70
2022/08/08 05:13:04;;;;;;;;;;;22.30;64.60;;;;;;6216842;23;1867;-72
2022/08/08 05:15:30;;;;;;;;;;;22.30;64.70;;;;;;6216553;23;918;-71
2022/08/08 05:17:55;;;;;;;;;;;22.30;64.70;;;;;;6217068;23;1305;-73
2022/08/08 05:20:21;;;;;;;;;;;22.30;64.70;;;;;;6216973;23;921;-71
2022/08/08 05:22:47;;;;;;;;;;;22.30;64.70;;;;;;6216928;23;1005;-70
2022/08/08 05:25:12;;;;;;;;;;;22.30;64.70;;;;;;6216967;23;850;-70
2022/08/08 05:27:38;;;;;;;;;;;22.30;64.70;;;;;;6214989;23;1281;-70
2022/08/08 05:30:03;;;;;;;;;;;22.30;64.70;;;;;;6214838;23;780;-69
2022/08/08 05:32:29;;;;;;;;;;;22.30;64.70;;;;;;6213523;23;836;-70
2022/08/08 05:34:56;;;;;;;;;;;22.30;64.80;;;;;;6213547;23;1901;-70
2022/08/08 05:37:22;;;;;;;;;;;22.30;64.80;;;;;;6212880;23;1194;-70
2022/08/08 05:39:51;;;;;;;;;;;22.30;64.80;;;;;;6215158;23;1013;-70
2022/08/08 05:42:17;;;;;;;;;;;22.30;65.50;;;;;;6213439;23;1013;-70
2022/08/08 05:44:46;;;;;;;;;;;22.30;64.80;;;;;;6214863;23;1033;-70
2022/08/08 05:47:11;;;;;;;;;;;22.30;64.80;;;;;;6212445;23;1282;-70
2022/08/08 05:49:37;;;;;;;;;;;22.30;64.80;;;;;;6213652;23;830;-71
2022/08/08 05:52:02;;;;;;;;;;;22.30;64.80;;;;;;6214540;23;815;-71
2022/08/08 05:54:28;;;;;;;;;;;22.30;64.80;;;;;;6213278;23;1929;-70
2022/08/08 05:56:54;;;;;;;;;;;22.30;64.80;;;;;;6214319;23;1287;-71
2022/08/08 05:59:24;;;;;;;;;;;22.30;64.80;;;;;;6213332;23;814;-70
2022/08/08 06:01:53;;;;;;;;;;;22.30;64.90;;;;;;6214714;23;920;-70
2022/08/08 06:04:23;;;;;;;;;;;22.30;64.90;;;;;;6213207;23;1271;-70
2022/08/08 06:06:48;;;;;;;;;;;22.30;64.90;;;;;;6212947;23;1224;-69
2022/08/08 06:09:14;;;;;;;;;;;22.30;64.90;;;;;;6213483;23;899;-69
2022/08/08 06:11:39;;;;;;;;;;;22.30;64.90;;;;;;6212949;23;864;-68
2022/08/08 06:14:05;;;;;;;;;;;22.30;64.90;;;;;;6212430;23;1880;-68
2022/08/08 06:16:35;;;;;;;;;;;22.30;64.90;;;;;;6214063;23;1263;-69
2022/08/08 06:19:01;;;;;;;;;;;22.30;65.00;;;;;;6214790;23;855;-70
2022/08/08 06:21:26;;;;;;;;;;;22.30;65.00;;;;;;6214677;23;899;-70
2022/08/08 06:23:52;;;;;;;;;;;22.30;64.90;;;;;;6213119;23;1206;-69
2022/08/08 06:26:17;;;;;;;;;;;22.30;64.90;;;;;;6166515;23;1108964;-69
2022/08/08 06:28:45;;;;;;;;;;;22.30;65.00;;;;;;6214813;23;939;-70
2022/08/08 06:31:10;;;;;;;;;;;22.30;65.00;;;;;;6214800;23;1018;-69
2022/08/08 06:33:54;;;;;;;;;;;22.30;65.00;;;;;;6215053;23;1909;-70
2022/08/08 06:36:36;;;;;;;;;;;22.30;65.00;;;;;;6215715;23;1151;-70
2022/08/08 06:39:01;;;;;;;;;;;22.30;65.00;;;;;;6216005;23;816;-71
2022/08/08 06:41:27;;;;;;;;;;;22.30;65.00;;;;;;6214085;23;791;-70
2022/08/08 06:43:55;;;;;;;;;;;22.30;65.00;;;;;;6214488;23;904;-70
2022/08/08 06:46:20;;;;;;;;;;;22.30;65.00;;;;;;6213772;23;1222;-70
2022/08/08 06:48:46;;;;;;;;;;;22.30;65.10;;;;;;6216107;23;1014;-73
2022/08/08 06:51:11;;;;;;;;;;;22.30;65.10;;;;;;6214365;23;702;-71
2022/08/08 06:53:36;;;;;;;;;;;22.30;65.10;;;;;;6213662;23;1897;-70
2022/08/08 06:56:02;;;;;;;;;;;22.30;65.10;;;;;;6214106;23;1187;-71
2022/08/08 06:58:27;;;;;;;;;;;22.30;65.10;;;;;;6214632;23;835;-71
2022/08/08 07:00:53;;;;;;;;;;;22.30;65.10;;;;;;6216011;23;718;-71
2022/08/08 07:03:39;;;;;;;;;;;22.30;65.10;;;;;;6214577;23;907;-71
2022/08/08 07:06:05;;;;;;;;;;;22.30;65.10;;;;;;6214114;23;1274;-71
2022/08/08 07:08:36;;;;;;;;;;;22.30;65.20;;;;;;6214465;23;801;-71
2022/08/08 07:11:02;;;;;;;;;;;22.30;65.20;;;;;;6216070;23;1013;-71
2022/08/08 07:13:30;;;;;;;;;;;22.30;65.20;;;;;;6215933;23;1938;-71
2022/08/08 07:16:02;;;;;;;;;;;22.30;65.20;;;;;;6214200;23;756;-71
2022/08/08 07:18:27;;;;;;;;;;;22.30;65.20;;;;;;6188911;23;1436;-71
2022/08/08 07:20:53;;;;;;;;;;;22.30;65.20;;;;;;6215827;23;907;-71
2022/08/08 07:23:23;;;;;;;;;;;22.30;65.20;;;;;;6215822;23;850;-71
2022/08/08 07:25:49;;;;;;;;;;;22.30;65.20;;;;;;6215282;23;816;-71
2022/08/08 07:28:14;;;;;;;;;;;22.30;65.20;;;;;;6213963;23;1173;-71
2022/08/08 07:30:40;;;;;;;;;;;22.30;65.20;;;;;;6215717;23;807;-71
2022/08/08 07:33:07;;;;;;;;;;;22.30;65.20;;;;;;6215592;23;1897;-71
2022/08/08 07:35:33;;;;;;;;;;;22.30;65.20;;;;;;6213293;23;827;-71
2022/08/08 07:37:58;;;;;;;;;;;22.30;65.20;;;;;;6214071;23;1215;-71
2022/08/08 07:40:24;;;;;;;;;;;22.30;65.20;;;;;;6215561;23;859;-71
2022/08/08 07:42:51;;;;;;;;;;;22.30;65.30;;;;;;6214164;23;939;-71
2022/08/08 07:45:16;;;;;;;;;;;22.30;65.30;;;;;;6215374;23;804;-71
2022/08/08 07:47:42;;;;;;;;;;;22.30;65.20;;;;;;6215081;23;1187;-71
2022/08/08 07:50:07;;;;;;;;;;;22.30;65.20;;;;;;6214019;23;788;-71
2022/08/08 07:52:33;;;;;;;;;;;22.30;65.30;;;;;;6215868;23;780;-71
2022/08/08 07:55:03;;;;;;;;;;;22.30;65.30;;;;;;6213964;23;1980;-71
2022/08/08 07:57:47;;;;;;;;;;;22.30;65.20;;;;;;6213623;23;1275;-71
2022/08/08 08:00:14;;;;;;;;;;;22.30;65.30;;;;;;6215688;23;753;-71
2022/08/08 08:02:41;;;;;;;;;;;22.30;65.30;;;;;;6214069;23;792;-71
2022/08/08 08:05:17;;;;;;;;;;;22.30;65.30;;;;;;6213846;23;923;-71
2022/08/08 08:07:42;;;;;;;;;;;22.30;65.30;;;;;;6213815;23;1333;-71
2022/08/08 08:10:09;;;;;;;;;;;22.20;65.20;;;;;;6213934;23;860;-71
2022/08/08 08:12:34;;;;;;;;;;;22.30;65.30;;;;;;6215314;23;780;-71
2022/08/08 08:15:01;;;;;;;;;;;22.30;65.30;;;;;;6213658;23;1885;-71
2022/08/08 08:17:26;;;;;;;;;;;22.30;65.30;;;;;;6214847;23;1250;-70
2022/08/08 08:19:52;;;;;;;;;;;22.30;65.40;;;;;;6213636;23;879;-70
2022/08/08 08:22:18;;;;;;;;;;;22.30;65.30;;;;;;6213996;23;1053;-71
2022/08/08 08:24:43;;;;;;;;;;;22.30;65.40;;;;;;6213814;23;891;-71
2022/08/08 08:27:09;;;;;;;;;;;22.30;65.40;;;;;;6213217;23;1172;-71
2022/08/08 08:29:34;;;;;;;;;;;22.30;65.40;;;;;;6214946;23;835;-71
2022/08/08 08:32:00;;;;;;;;;;;22.30;65.40;;;;;;6215121;23;884;-72
2022/08/08 08:34:25;;;;;;;;;;;22.30;65.40;;;;;;6214856;23;1944;-71
2022/08/08 08:36:51;;;;;;;;;;;22.30;65.40;;;;;;6215304;23;1200;-70
2022/08/08 08:39:16;;;;;;;;;;;22.30;65.40;;;;;;6217227;23;805;-71
2022/08/08 08:41:42;;;;;;;;;;;22.30;65.40;;;;;;6217269;23;1023;-71
2022/08/08 08:44:07;;;;;;;;;;;22.30;65.50;;;;;;6217328;23;854;-70
2022/08/08 08:46:33;;;;;;;;;;;22.30;65.40;;;;;;6215312;23;1296;-71
2022/08/08 08:48:59;;;;;;;;;;;22.30;65.40;;;;;;6217213;23;808;-71
2022/08/08 08:51:25;;;;;;;;;;;22.30;65.40;;;;;;6215632;23;832;-71
2022/08/08 08:53:51;;;;;;;;;;;22.30;65.50;;;;;;6190154;23;1885;-71
2022/08/08 08:56:20;;;;;;;;;;;22.30;65.50;;;;;;6216766;23;1305;-71
2022/08/08 08:58:48;;;;;;;;;;;22.30;65.50;;;;;;6215664;23;785;-71
2022/08/08 09:01:17;;;;;;;;;;;22.30;65.40;;;;;;6215591;23;895;-71
2022/08/08 09:03:43;;;;;;;;;;;22.30;65.50;;;;;;6217145;23;906;-70
2022/08/08 09:06:08;;;;;;;;;;;22.20;65.40;;;;;;6216853;23;1268;-71
2022/08/08 09:08:34;;;;;;;;;;;22.20;65.40;;;;;;6217062;23;843;-71
2022/08/08 09:10:59;;;;;;;;;;;22.30;65.50;;;;;;6215512;23;903;-71
2022/08/08 09:13:25;;;;;;;;;;;22.30;65.50;;;;;;6216996;23;1940;-71
2022/08/08 09:15:50;;;;;;;;;;;22.30;65.50;;;;;;6216841;23;1021;-71
2022/08/08 09:18:16;;;;;;;;;;;22.20;65.40;;;;;;6215159;23;1224;-70
2022/08/08 09:20:43;;;;;;;;;;;22.30;65.50;;;;;;6215484;23;808;-71
2022/08/08 09:23:08;;;;;;;;;;;22.30;65.50;;;;;;6215414;23;1021;-71
2022/08/08 09:25:34;;;;;;;;;;;22.30;65.50;;;;;;6215078;23;1061;-72
2022/08/08 09:27:59;;;;;;;;;;;22.30;65.50;;;;;;6230414;22;3900;-65
2022/08/08 09:30:25;;;;;;;;;;;22.20;65.50;;;;;;6220155;23;1219;-65
2022/08/08 09:32:51;;;;;;;;;;;22.20;65.50;;;;;;6247073;23;801;-66
2022/08/08 09:35:19;;;;;;;;;;;22.20;65.50;;;;;;6220278;23;1947;-66
2022/08/08 09:37:44;;;;;;;;;;;22.20;65.50;;;;;;6246880;23;1171;-66
2022/08/08 09:40:10;;;;;;;;;;;22.30;65.60;;;;;;6247356;23;837;-65
2022/08/08 09:42:37;;;;;;;;;;;22.30;65.60;;;;;;6247250;23;799;-65
2022/08/08 09:45:05;;;;;;;;;;;22.20;65.60;;;;;;6220385;23;907;-65
2022/08/08 09:47:31;;;;;;;;;;;22.20;65.50;;;;;;6246565;23;1231;-66
2022/08/08 09:49:57;;;;;;;;;;;22.20;65.60;;;;;;6247097;23;942;-66
2022/08/08 09:52:23;;;;;;;;;;;22.20;65.60;;;;;;6246950;23;764;-66
2022/08/08 09:54:48;;;;;;;;;;;22.20;65.60;;;;;;6220088;23;1924;-66
2022/08/08 09:57:16;;;;;;;;;;;22.30;65.70;;;;;;6220161;23;1271;-66
2022/08/08 09:59:41;;;;;;;;;;;22.20;65.60;;;;;;6246963;23;840;-66
2022/08/08 10:02:11;;;;;;;;;;;22.20;65.60;;;;;;6247024;23;1012;-66
2022/08/08 10:04:37;;;;;;;;;;;22.30;65.70;;;;;;6220192;23;902;-65
2022/08/08 10:07:03;;;;;;;;;;;22.20;65.60;;;;;;6246293;23;1148;-66
2022/08/08 10:09:29;;;;;;;;;;;22.30;65.70;;;;;;6246879;23;834;-65
2022/08/08 10:11:55;;;;;;;;;;;22.30;65.70;;;;;;6246864;23;827;-66
2022/08/08 10:14:20;;;;;;;;;;;22.30;65.70;;;;;;6246959;23;1928;-66
2022/08/08 10:16:45;;;;;;;;;;;22.20;65.60;;;;;;6219481;23;1318;-65
2022/08/08 10:19:11;;;;;;;;;;;22.30;65.70;;;;;;6246812;23;879;-65
2022/08/08 10:21:37;;;;;;;;;;;22.30;65.70;;;;;;6246638;23;934;-66
2022/08/08 10:24:03;;;;;;;;;;;22.20;65.70;;;;;;6246817;23;899;-66
2022/08/08 10:26:30;;;;;;;;;;;22.20;65.70;;;;;;6246450;23;962;-65
2022/08/08 10:29:05;;;;;;;;;;;22.20;65.70;;;;;;6245937;23;1152;-65
2022/08/08 10:34:16;;;;;;;;;;;22.20;65.70;;;;;;6246063;23;1897;-66
2022/08/08 10:36:42;;;;;;;;;;;22.30;65.80;;;;;;6219468;23;821;-65
2022/08/08 10:39:16;;;;;;;;;;;22.20;65.70;;;;;;6219299;23;1006;-66
2022/08/08 10:41:42;;;;;;;;;;;22.20;65.70;;;;;;6219873;23;762;-66
2022/08/08 10:44:08;;;;;;;;;;;22.30;65.80;;;;;;6246298;23;966;-65
2022/08/08 10:46:34;;;;;;;;;;;22.20;65.70;;;;;;6219027;23;1013;-67
2022/08/08 10:48:59;;;;;;;;;;;22.20;65.70;;;;;;6245883;23;1238;-65
2022/08/08 10:51:25;;;;;;;;;;;22.20;65.70;;;;;;6219268;23;788;-65
2022/08/08 10:53:53;;;;;;;;;;;22.20;65.70;;;;;;6219264;23;1884;-65
2022/08/08 10:56:22;;;;;;;;;;;22.30;65.80;;;;;;6246047;23;808;-65
2022/08/08 10:59:03;;;;;;;;;;;22.30;65.90;;;;;;6218696;23;1159;-66
2022/08/08 11:01:28;;;;;;;;;;;22.20;65.80;;;;;;6218992;23;804;-65
2022/08/08 11:03:55;;;;;;;;;;;22.20;65.80;;;;;;6193617;23;1346;-65
2022/08/08 11:06:21;;;;;;;;;;;22.20;65.80;;;;;;6218353;23;808;-65
2022/08/08 11:08:46;;;;;;;;;;;22.20;65.80;;;;;;6218438;23;1219;-66
2022/08/08 11:11:12;;;;;;;;;;;22.20;65.80;;;;;;6245384;23;914;-66
2022/08/08 11:13:39;;;;;;;;;;;22.20;65.80;;;;;;6245021;23;1893;-65
2022/08/08 11:16:05;;;;;;;;;;;22.20;65.80;;;;;;6244856;23;836;-66
2022/08/08 11:18:30;;;;;;;;;;;22.30;65.80;;;;;;6218504;23;1314;-66
2022/08/08 11:20:56;;;;;;;;;;;22.30;65.90;;;;;;6218558;23;820;-65
2022/08/08 11:23:22;;;;;;;;;;;22.20;65.80;;;;;;6217939;23;1009;-65
2022/08/08 11:25:47;;;;;;;;;;;22.20;65.90;;;;;;6217861;23;788;-66
2022/08/08 11:28:13;;;;;;;;;;;22.30;66.00;;;;;;6218419;23;1425;-67
2022/08/08 11:30:38;;;;;;;;;;;22.20;65.80;;;;;;6246065;23;779;-67
2022/08/08 11:33:04;;;;;;;;;;;22.20;65.90;;;;;;6219199;23;1291;-67
2022/08/08 11:35:29;;;;;;;;;;;22.20;65.90;;;;;;6218930;23;1936;-66
2022/08/08 11:37:55;;;;;;;;;;;22.20;65.90;;;;;;6218972;23;1247;-67
2022/08/08 11:40:21;;;;;;;;;;;22.20;65.90;;;;;;6219143;23;1052;-67
2022/08/08 11:42:46;;;;;;;;;;;22.30;66.00;;;;;;6245920;23;799;-66
2022/08/08 11:45:12;;;;;;;;;;;22.20;66.00;;;;;;6210459;23;1062;-65
2022/08/08 11:47:37;;;;;;;;;;;22.20;66.70;;;;;;6213119;23;1242;-67
2022/08/08 11:50:12;;;;;;;;;;;22.30;68.70;;;;;;6217690;23;879;-67
2022/08/08 11:52:38;;;;;;;;;;;22.30;68.30;;;;;;6245134;23;990;-65
2022/08/08 11:55:16;;;;;;;;;;;22.30;69.10;;;;;;6217970;23;1954;-66
2022/08/08 11:57:42;;;;;;;;;;;22.30;68.90;;;;;;6243475;23;1281;-66
2022/08/08 12:00:08;;;;;;;;;;;22.30;68.80;;;;;;6245660;23;1060;-66
2022/08/08 12:02:44;;;;;;;;;;;22.30;68.80;;;;;;6219042;23;1236;-66
2022/08/08 12:05:10;;;;;;;;;;;22.30;68.90;;;;;;6245615;23;831;-66
2022/08/08 12:07:45;;;;;;;;;;;22.30;69.10;;;;;;6218578;23;1259;-66
2022/08/08 12:10:11;;;;;;;;;;;22.30;69.00;;;;;;6219398;23;926;-66
2022/08/08 12:12:40;;;;;;;;;;;22.30;68.70;;;;;;6245755;23;910;-66
2022/08/08 12:15:06;;;;;;;;;;;22.30;68.90;;;;;;6245531;23;1889;-67
2022/08/08 12:17:35;;;;;;;;;;;22.30;68.80;;;;;;6245053;23;1272;-66
2022/08/08 12:20:03;;;;;;;;;;;22.30;68.90;;;;;;6218970;23;844;-66
2022/08/08 12:22:30;;;;;;;;;;;22.30;69.20;;;;;;6245555;23;796;-66
2022/08/08 12:24:56;;;;;;;;;;;22.30;69.10;;;;;;6245626;23;811;-67
2022/08/08 12:27:21;;;;;;;;;;;22.30;69.10;;;;;;6244954;23;1152;-67
2022/08/08 12:29:57;;;;;;;;;;;22.30;69.10;;;;;;6245674;23;908;-67
2022/08/08 12:32:23;;;;;;;;;;;22.30;69.00;;;;;;6219205;23;883;-67
2022/08/08 12:35:09;;;;;;;;;;;22.30;69.10;;;;;;6218487;23;1940;-66
2022/08/08 12:37:34;;;;;;;;;;;22.30;69.10;;;;;;6192346;23;1459;-66
2022/08/08 12:40:10;;;;;;;;;;;22.40;69.30;;;;;;6245604;23;776;-66
2022/08/08 12:42:42;;;;;;;;;;;22.40;69.10;;;;;;6234848;23;819;-65
2022/08/08 12:45:09;;;;;;;;;;;22.40;69.00;;;;;;6243624;23;1069;-66
2022/08/08 12:47:34;;;;;;;;;;;22.40;68.70;;;;;;6242137;23;1234;-66
2022/08/08 12:50:00;;;;;;;;;;;22.40;68.70;;;;;;6216932;23;897;-66
2022/08/08 12:52:29;;;;;;;;;;;22.40;68.70;;;;;;6244324;23;776;-67
2022/08/08 12:55:05;;;;;;;;;;;22.40;68.80;;;;;;6217097;23;1893;-66
2022/08/08 12:57:30;;;;;;;;;;;22.40;68.70;;;;;;6242306;23;1242;-65
2022/08/08 12:59:57;;;;;;;;;;;22.40;68.70;;;;;;6243402;23;792;-66
2022/08/08 13:02:24;;;;;;;;;;;22.40;68.60;;;;;;6243841;23;871;-66
2022/08/08 13:04:50;;;;;;;;;;;22.40;68.60;;;;;;6216898;23;1483;-65
2022/08/08 13:07:15;;;;;;;;;;;22.40;68.50;;;;;;6243022;23;1258;-66
2022/08/08 13:09:42;;;;;;;;;;;22.40;68.40;;;;;;6243314;23;918;-65
2022/08/08 13:12:18;;;;;;;;;;;22.40;68.40;;;;;;6215280;23;1498;-67
2022/08/08 13:14:43;;;;;;;;;;;22.40;68.40;;;;;;6241876;23;1948;-66
2022/08/08 13:17:09;;;;;;;;;;;22.40;68.30;;;;;;6243016;23;1242;-65
2022/08/08 13:19:35;;;;;;;;;;;22.40;68.30;;;;;;6217365;23;844;-67
2022/08/08 13:22:00;;;;;;;;;;;22.40;68.30;;;;;;6216679;23;923;-67
2022/08/08 13:24:26;;;;;;;;;;;22.40;68.30;;;;;;6207577;23;791;-66
2022/08/08 13:26:58;;;;;;;;;;;22.40;68.20;;;;;;6217483;23;1245;-66
2022/08/08 13:29:24;;;;;;;;;;;22.40;68.10;;;;;;6219403;23;820;-66
2022/08/08 13:31:49;;;;;;;;;;;22.40;68.00;;;;;;6219277;23;788;-65
2022/08/08 13:34:21;;;;;;;;;;;22.40;68.00;;;;;;6246014;23;2009;-66
2022/08/08 13:36:47;;;;;;;;;;;22.40;68.10;;;;;;6245340;23;1280;-66
2022/08/08 13:39:14;;;;;;;;;;;22.40;68.20;;;;;;6245909;23;1178;-67
2022/08/08 13:41:39;;;;;;;;;;;22.30;68.10;;;;;;6245759;23;824;-66
2022/08/08 13:44:07;;;;;;;;;;;22.40;68.10;;;;;;6246314;23;846;-66
2022/08/08 13:46:33;;;;;;;;;;;22.40;68.10;;;;;;6245735;23;802;-67
2022/08/08 13:48:58;;;;;;;;;;;22.30;68.00;;;;;;6215227;23;1144;-66
2022/08/08 13:51:24;;;;;;;;;;;22.40;68.90;;;;;;6244843;23;746;-67
2022/08/08 13:53:53;;;;;;;;;;;22.40;68.10;;;;;;6245340;23;1884;-67
2022/08/08 13:56:47;;;;;;;;;;;22.40;68.10;;;;;;6217435;23;930;-66
2022/08/08 13:59:13;;;;;;;;;;;22.40;67.70;;;;;;6197172;23;1379;-66
2022/08/08 14:01:38;;;;;;;;;;;22.40;67.40;;;;;;6245456;23;1041;-66
2022/08/08 14:04:04;;;;;;;;;;;22.40;67.50;;;;;;6244489;23;1010;-66
2022/08/08 14:06:31;;;;;;;;;;;22.30;67.70;;;;;;6245032;23;819;-67
2022/08/08 14:08:56;;;;;;;;;;;22.30;67.80;;;;;;6245046;23;1230;-66
2022/08/08 14:11:23;;;;;;;;;;;22.40;68.00;;;;;;6245560;23;1053;-67
2022/08/08 14:13:48;;;;;;;;;;;22.40;68.20;;;;;;6218218;23;1889;-67
2022/08/08 14:16:14;;;;;;;;;;;22.40;68.10;;;;;;6244563;23;817;-67
2022/08/08 14:18:49;;;;;;;;;;;22.40;68.30;;;;;;6244617;23;1156;-65
2022/08/08 14:21:14;;;;;;;;;;;22.40;68.40;;;;;;6245106;23;807;-66
2022/08/08 14:23:40;;;;;;;;;;;22.40;68.30;;;;;;6244802;23;1009;-66
2022/08/08 14:26:06;;;;;;;;;;;22.30;68.30;;;;;;6244828;23;817;-66
2022/08/08 14:28:32;;;;;;;;;;;22.40;68.40;;;;;;6244632;23;1215;-67
2022/08/08 14:31:07;;;;;;;;;;;22.40;68.40;;;;;;6245540;23;882;-67
2022/08/08 14:33:32;;;;;;;;;;;22.40;68.50;;;;;;6243722;23;1942;-66
2022/08/08 14:36:04;;;;;;;;;;;22.40;68.50;;;;;;6244203;23;816;-66
2022/08/08 14:38:30;;;;;;;;;;;22.40;68.30;;;;;;6192981;23;1314;-66
2022/08/08 14:40:56;;;;;;;;;;;22.40;68.20;;;;;;6244340;23;1005;-67
2022/08/08 14:43:26;;;;;;;;;;;22.40;68.20;;;;;;6245926;23;842;-67
2022/08/08 14:46:02;;;;;;;;;;;22.40;68.30;;;;;;6246292;23;928;-67
2022/08/08 14:48:27;;;;;;;;;;;22.40;68.40;;;;;;6245449;23;1223;-67
2022/08/08 14:50:52;;;;;;;;;;;22.40;68.20;;;;;;6219105;23;1284;-67
2022/08/08 14:53:22;;;;;;;;;;;22.40;68.20;;;;;;6194039;23;1926;-67